Latest Weather Observations for Giles*

IDD60801

Issued at 4:31 am CST Monday 26 September 2016 (issued every 30 minutes, with the page automatically refreshed every 10 minutes)

About weather observations | Map of weather stations | Latest weather observations for NT | Other Formats
Station Details ID: 013017 Name: GILES METEOROLOGICAL OFFICE Lat: -25.03 Lon: 128.30 Height: 598.0 m
Data from the previous 72 hours. | See also: Recent months at Giles*

* Giles observations are collected in the South Australia time zone, which includes daylight saving in the summer period. Therefore, Rain since 9am value is with respect to South Australia local time.

Date/Time
CST
Temp
°C
App
Temp
°C
Dew
Point
°C
Rel
Hum
%
Delta-T
°C
Wind Press
QNH
hPa
Press
MSL
hPa
Rain since
9am
mm
Dir  Spd
km/h
Gust
km/h
Spd
kts
Gust
kts
26/04:30am 20.1 14.2 -9.4 13 11.2 ESE 15 24 8 13 1011.3 1008.8 0.0
26/04:00am 20.1 13.8 -10.8 11 11.4 E 17 20 9 11 1011.1 1008.6 0.0
26/03:30am 20.1 13.8 -10.8 11 11.4 E 17 20 9 11 1011.4 1008.9 0.0
26/03:00am 17.8 12.5 -6.8 18 9.6 ESE 13 15 7 8 1011.6 1009.1 0.0
26/02:30am 20.0 14.5 -9.8 12 11.2 E 13 17 7 9 1011.8 1009.4 0.0
26/02:00am 20.0 14.1 -9.8 12 11.2 E 15 17 8 9 1012.3 1009.8 0.0
26/01:30am 20.2 14.3 -10.5 11 11.4 E 15 17 8 9 1012.6 1010.1 0.0
26/01:00am 20.2 14.3 -9.8 12 11.3 E 15 17 8 9 1013.0 1010.5 0.0
26/12:30am 19.2 13.4 -9.2 14 10.7 E 15 15 8 8 1013.3 1010.9 0.0
26/12:00am 18.9 13.5 -8.3 15 10.4 E 13 15 7 8 1013.6 1011.2 0.0
 
Date/Time
CST
Temp
°C
App
Temp
°C
Dew
Point
°C
Rel
Hum
%
Delta-T
°C
Wind Press
QNH
hPa
Press
MSL
hPa
Rain since
9am
mm
Dir  Spd
km/h
Gust
km/h
Spd
kts
Gust
kts
25/11:30pm 18.2 12.9 -7.4 17 9.9 ESE 13 15 7 8 1014.0 1011.5 0.0
25/11:00pm 18.3 13.4 -6.6 18 9.8 SE 11 15 6 8 1014.2 1011.7 0.0
25/10:30pm 18.2 13.3 -6.9 17 9.8 ESE 11 13 6 7 1014.3 1011.8 0.0
25/10:00pm 18.9 13.9 -7.7 16 10.3 SE 11 15 6 8 1014.3 1011.8 0.0
25/09:30pm 19.2 14.3 -7.5 15 10.4 SE 11 11 6 6 1014.4 1011.9 0.0
25/09:00pm 20.1 15.2 -7.2 15 10.8 SE 11 13 6 7 1014.4 1011.9 0.0
25/08:30pm 20.8 16.3 -6.8 15 11.1 S 9 13 5 7 1014.1 1011.6 0.0
25/08:00pm 21.8 17.6 -7.3 13 11.7 SSW 7 9 4 5 1013.8 1011.3 0.0
25/07:30pm 23.6 19.2 -5.9 13 12.4 W 9 11 5 6 1013.3 1010.9 0.0
25/07:00pm 24.6 20.0 -8.0 11 13.3 WNW 9 13 5 7 1013.0 1010.5 0.0
25/06:30pm 26.5 20.4 -12.2 7 14.9 WNW 15 22 8 12 1012.7 1010.2 0.0
25/06:00pm 27.2 21.2 -11.5 7 15.2 W 15 22 8 12 1012.5 1010.0 0.0
25/05:30pm 27.5 20.7 -12.7 6 15.5 WNW 19 26 10 14 1012.3 1009.8 0.0
25/05:00pm 27.8 20.8 -16.0 5 16.0 WNW 19 30 10 16 1012.2 1009.7 0.0
25/04:30pm 27.6 20.4 -16.1 5 15.9 W 20 33 11 18 1012.2 1009.7 0.0
25/04:00pm 28.5 21.2 -17.4 4 16.5 NW 20 33 11 18 1012.3 1009.8 0.0
25/03:30pm 28.5 22.7 -15.1 5 16.3 NW 13 24 7 13 1012.3 1009.8 0.0
25/03:00pm 27.2 22.4 -10.7 7 15.1 N 9 17 5 9 1012.6 1010.1 0.0
25/02:30pm 27.4 20.9 -13.2 6 15.5 W 17 26 9 14 1012.9 1010.4 0.0
25/02:00pm 26.7 20.6 -12.2 7 15.0 NW 15 20 8 11 1013.5 1011.1 0.0
25/01:30pm 26.4 21.9 -7.0 10 14.1 NW 9 17 5 9 1014.0 1011.5 0.0
25/01:00pm 25.3 20.8 -7.0 11 13.5 W 9 19 5 10 1014.5 1012.0 0.0
25/12:30pm 25.3 20.2 -9.6 9 13.9 W 11 20 6 11 1015.1 1012.7 0.0
25/12:00pm 24.9 20.8 -7.1 11 13.3 NNW 7 15 4 8 1015.6 1013.1 0.0
25/11:30am 24.4 20.5 -4.8 14 12.6 SSE 7 13 4 7 1015.9 1013.4 0.0
25/11:00am 22.8 17.8 -4.6 15 11.7 NE 13 20 7 11 1016.3 1013.9 0.0
25/10:30am 22.3 17.2 -1.7 20 10.8 E 15 22 8 12 1016.5 1014.1 0.0
25/10:00am 21.3 15.8 -1.9 21 10.3 ENE 17 22 9 12 1016.7 1014.3 0.0
25/09:30am 20.4 14.2 -3.0 20 10.1 ENE 20 28 11 15 1016.7 1014.3 0.0
25/09:00am 19.0 13.3 -3.6 21 9.5 ENE 17 24 9 13 1016.6 1014.2 0.0
25/08:30am 17.8 11.8 -3.2 23 8.8 ENE 19 28 10 15 1016.3 1013.9 0.0
25/08:00am 16.4 11.1 -3.2 26 8.1 E 15 20 8 11 1016.0 1013.5 0.0
25/07:30am 12.8 8.0 -2.5 34 6.2 E 13 17 7 9 1015.8 1013.3 0.0
25/07:00am 8.7 4.3 -2.3 46 4.3 ESE 11 15 6 8 1015.7 1013.2 0.0
25/06:30am 9.7 6.6 -2.5 42 4.8 N 4 11 2 6 1015.3 1012.9 0.0
25/06:00am 9.3 3.7 -2.5 43 4.6 ESE 17 20 9 11 1014.8 1012.4 0.0
25/05:30am 8.6 3.9 -2.1 47 4.2 ESE 13 17 7 9 1014.5 1012.0 0.0
25/05:00am 9.0 3.9 -2.2 45 4.4 ESE 15 19 8 10 1014.2 1011.7 0.0
25/04:30am 9.3 3.7 -2.5 43 4.6 ESE 17 19 9 10 1014.0 1011.5 0.0
25/04:00am 9.7 4.2 -2.2 43 4.7 ESE 17 19 9 10 1014.0 1011.5 0.0
25/03:30am 10.0 4.8 -2.4 42 4.9 ESE 15 17 8 9 1014.1 1011.6 0.0
25/03:00am 10.8 5.2 -2.6 39 5.3 ESE 17 19 9 10 1014.3 1011.8 0.0
25/02:30am 11.3 6.1 -2.5 38 5.5 E 15 17 8 9 1014.5 1012.0 0.0
25/02:00am 12.3 7.5 -2.6 35 6.0 E 13 17 7 9 1014.6 1012.1 0.0
25/01:30am 13.1 8.3 -2.7 33 6.4 E 13 15 7 8 1014.7 1012.2 0.0
25/01:00am 13.6 8.8 -2.6 32 6.6 E 13 15 7 8 1014.9 1012.5 0.0
25/12:30am 14.1 9.3 -2.8 31 6.9 E 13 17 7 9 1015.2 1012.8 0.0
25/12:00am 14.2 9.7 -3.0 30 7.0 ESE 11 15 6 8 1015.4 1013.0 0.0
 
Date/Time
CST
Temp
°C
App
Temp
°C
Dew
Point
°C
Rel
Hum
%
Delta-T
°C
Wind Press
QNH
hPa
Press
MSL
hPa
Rain since
9am
mm
Dir  Spd
km/h
Gust
km/h
Spd
kts
Gust
kts
24/11:30pm 14.1 9.3 -2.8 31 6.9 ESE 13 15 7 8 1015.8 1013.3 0.0
24/11:00pm 14.5 10.0 -3.3 29 7.2 SE 11 13 6 7 1016.0 1013.5 0.0
24/10:30pm 14.6 9.7 -3.5 28 7.3 SE 13 15 7 8 1016.1 1013.6 0.0
24/10:00pm 14.6 10.1 -3.5 28 7.3 SSE 11 13 6 7 1016.0 1013.5 0.0
24/09:30pm 15.4 10.8 -3.9 26 7.8 ESE 11 13 6 7 1015.9 1013.4 0.0
24/09:00pm 15.9 11.3 -3.8 25 8.0 SSE 11 13 6 7 1015.6 1013.1 0.0
24/08:30pm 16.9 12.7 -4.2 23 8.6 SSE 9 11 5 6 1015.1 1012.7 0.0
24/08:00pm 17.6 13.2 -5.4 20 9.2 S 9 11 5 6 1014.7 1012.2 0.0
24/07:30pm 19.1 14.3 -6.1 17 10.1 SSW 11 13 6 7 1014.2 1011.7 0.0
24/07:00pm 20.6 15.4 -6.3 16 10.9 S 13 15 7 8 1013.9 1011.4 0.0
24/06:30pm 22.3 17.0 -7.5 13 12.0 SSW 13 19 7 10 1013.4 1011.0 0.0
24/06:00pm 23.3 17.5 -9.2 11 12.8 SSW 15 22 8 12 1013.1 1010.6 0.0
24/05:30pm 23.9 18.2 -7.8 11 12.9 S 15 28 8 15 1012.8 1010.3 0.0
24/05:00pm 23.8 18.4 -8.2 11 12.9 SSW 13 20 7 11 1012.7 1010.2 0.0
24/04:30pm 24.2 17.9 -10.8 9 13.5 SW 17 30 9 16 1012.6 1010.1 0.0
24/04:00pm 23.5 16.9 -9.8 10 13.0 SSE 19 28 10 15 1012.5 1010.0 0.0
24/03:30pm 24.3 17.7 -9.7 10 13.4 SW 19 32 10 17 1012.8 1010.3 0.0
24/03:00pm 23.9 18.4 -9.1 10 13.1 WSW 13 22 7 12 1012.8 1010.3 0.0
24/02:30pm 23.1 17.0 -8.0 12 12.5 SW 17 35 9 19 1013.1 1010.6 0.0
24/02:00pm 23.5 16.9 -8.6 11 12.8 SSW 19 30 10 16 1013.4 1011.0 0.0
24/01:30pm 23.0 16.2 -9.0 11 12.6 SSW 20 37 11 20 1013.6 1011.2 0.0
24/01:00pm 22.5 17.1 -8.7 11 12.3 SW 13 22 7 12 1014.2 1011.7 0.0
24/12:30pm 22.6 17.2 -8.4 12 12.3 SW 13 26 7 14 1014.5 1012.0 0.0
24/12:00pm 21.6 15.4 -4.7 17 11.1 SSW 19 35 10 19 1015.0 1012.6 0.0
24/11:30am 21.1 14.6 -5.5 16 11.0 S 20 32 11 17 1015.4 1013.0 0.0
24/11:00am 21.4 15.6 -4.3 17 10.9 S 17 24 9 13 1015.6 1013.1 0.0
24/10:30am 20.3 13.9 -4.6 18 10.4 SSE 20 30 11 16 1016.0 1013.5 0.0
24/10:00am 19.2 12.2 -3.5 21 9.6 SSE 24 32 13 17 1016.0 1013.5 0.0
24/09:30am 18.1 10.7 -3.4 23 9.0 SSE 26 37 14 20 1016.1 1013.6 0.0
24/09:00am 17.4 10.4 -3.2 24 8.6 SSE 24 32 13 17 1015.9 1013.4 0.0
24/08:30am 16.3 9.0 -2.9 26 8.0 SSE 26 35 14 19 1015.3 1012.9 0.0
24/08:00am 15.1 8.6 -2.5 29 7.3 S 22 35 12 19 1014.9 1012.5 0.0
24/07:30am 13.8 8.3 -1.8 34 6.5 S 17 22 9 12 1014.4 1011.9 0.0
24/07:00am 13.8 8.7 -1.8 34 6.5 S 15 24 8 13 1014.0 1011.5 0.0
24/06:30am 14.5 9.4 -1.7 32 6.8 S 15 20 8 11 1013.2 1010.7 0.0
24/06:00am 14.9 9.0 -2.1 31 7.1 S 19 24 10 13 1012.8 1010.3 0.0
24/05:30am 15.3 9.4 -2.1 30 7.3 SSW 19 24 10 13 1012.3 1009.8 0.0
24/05:00am 15.7 11.1 -1.3 31 7.3 SSW 13 20 7 11 1011.8 1009.4 0.0
24/04:30am 15.9 11.1 0.1 34 7.0 SSW 15 22 8 12 1010.9 1008.4 0.0
24/04:00am 15.5 11.6 1.4 38 6.4 SSW 11 17 6 9 1010.8 1008.3 0.0
24/03:30am 16.2 11.8 0.6 34 7.0 S 13 19 7 10 1010.7 1008.2 0.0
24/03:00am 15.3 11.4 1.1 38 6.4 SSE 11 13 6 7 1010.5 1008.0 0.0
24/02:30am 16.3 12.5 1.7 37 6.7 SSE 11 11 6 6 1010.4 1007.9 0.0
24/02:00am 16.7 12.8 1.1 35 7.1 SSE 11 13 6 7 1010.4 1007.9 0.0
24/01:30am 17.1 13.2 1.1 34 7.3 SE 11 13 6 7 1010.5 1008.0 0.0
24/01:00am 17.5 14.0 1.1 33 7.5 SE 9 13 5 7 1010.7 1008.2 0.0
24/12:30am 18.6 15.5 1.1 31 8.1 SSE 7 9 4 5 1010.7 1008.2 0.0
24/12:00am 17.8 14.8 2.3 35 7.3 SE 7 9 4 5 1010.6 1008.1 0.0
 
Date/Time
CST
Temp
°C
App
Temp
°C
Dew
Point
°C
Rel
Hum
%
Delta-T
°C
Wind Press
QNH
hPa
Press
MSL
hPa
Rain since
9am
mm
Dir  Spd
km/h
Gust
km/h
Spd
kts
Gust
kts
23/11:30pm 18.4 15.3 1.1 31 8.0 SE 7 9 4 5 1010.5 1008.0 0.0
23/11:00pm 18.9 15.7 0.9 30 8.3 SSW 7 11 4 6 1010.7 1008.2 0.0
23/10:30pm 19.5 15.9 0.3 27 8.8 SW 9 11 5 6 1010.6 1008.1 0.0
23/10:00pm 20.8 16.8 0.3 25 9.5 SW 11 15 6 8 1010.6 1008.1 0.0
23/09:30pm 22.7 17.9 0.4 23 10.5 WSW 15 20 8 11 1010.4 1007.9 0.0
23/09:00pm 23.9 18.8 1.0 22 11.0 W 17 20 9 11 1009.8 1007.3 0.0
23/08:30pm 24.6 19.9 3.1 24 10.8 W 17 22 9 12 1009.5 1007.0 0.0
23/08:00pm 25.6 20.3 3.0 23 11.4 W 20 33 11 18 1009.0 1006.5 0.0
23/07:30pm 26.3 21.3 3.7 23 11.6 W 19 26 10 14 1008.5 1005.9 0.0
23/07:00pm 27.1 20.8 3.6 22 12.1 W 26 44 14 24 1007.8 1005.3 0.0
23/06:30pm 28.1 21.3 3.2 20 12.8 WNW 28 41 15 22 1007.3 1004.7 0.0
23/06:00pm 29.0 22.3 3.4 19 13.3 WNW 28 39 15 21 1007.0 1004.4 0.0
23/05:43pm 29.1 21.5 2.9 18 13.5 W 32 50 17 27 1006.8 1004.2 0.0
23/05:30pm 29.3 22.0 2.6 18 13.7 WNW 30 44 16 24 1006.7 1004.1 0.0
23/05:13pm 30.0 22.0 1.9 16 14.3 WNW 33 52 18 28 1006.4 1003.9 0.0
23/05:00pm 29.9 21.8 1.3 16 14.4 NW 33 48 18 26 1006.3 1003.8 0.0
23/04:30pm 30.5 21.2 0.4 14 15.0 NW 39 61 21 33 1006.3 1003.8 0.0
23/04:00pm 30.6 21.3 -2.0 12 15.5 WNW 37 52 20 28 1006.3 1003.8 0.0
23/03:30pm 31.4 22.5 -1.7 12 16.0 WNW 35 54 19 29 1006.3 1003.8 0.0
23/03:00pm 31.6 23.3 -2.0 11 16.2 NW 32 50 17 27 1006.7 1004.1 0.0
23/02:30pm 30.9 22.1 -4.2 10 16.2 WNW 33 54 18 29 1007.3 1004.7 0.0
23/02:00pm 31.5 21.7 -6.8 8 16.9 NW 37 50 20 27 1007.6 1005.1 0.0
23/01:34pm 31.4 22.3 -10.0 6 17.3 NW 32 50 17 27 1007.9 1005.4 0.0
23/01:30pm 31.2 21.5 -10.2 6 17.3 NW 35 50 19 27 1008.1 1005.6 0.0
23/01:25pm 31.2 21.7 -11.8 5 17.4 NW 33 50 18 27 1008.1 1005.6 0.0
23/01:00pm 30.5 21.7 -10.2 6 16.9 NNW 30 48 16 26 1008.6 1006.0 0.0
23/12:57pm 30.5 22.1 -10.2 6 16.9 NNW 28 48 15 26 1008.7 1006.1 0.0
23/12:30pm 30.0 20.6 -11.7 6 16.8 NW 33 48 18 26 1009.4 1006.9 0.0
23/12:15pm 30.1 21.6 -11.3 6 16.8 NW 28 46 15 25 1009.7 1007.2 0.0
23/12:00pm 29.5 22.4 -8.5 8 16.1 NNW 22 30 12 16 1010.0 1007.5 0.0
23/11:30am 28.5 21.5 -7.0 9 15.3 N 22 33 12 18 1010.5 1008.0 0.0
23/11:00am 27.5 19.8 -6.8 10 14.7 N 26 39 14 21 1010.8 1008.3 0.0
23/10:30am 26.9 19.2 -6.4 11 14.3 N 26 33 14 18 1011.2 1008.7 0.0
23/10:00am 26.4 20.5 -5.7 11 13.9 N 17 24 9 13 1011.4 1008.9 0.0
23/09:30am 24.3 18.1 -3.0 16 12.2 N 20 28 11 15 1011.7 1009.2 0.0
23/09:00am 23.7 16.5 -5.6 14 12.4 N 24 32 13 17 1011.7 1009.2 0.0
23/08:30am 22.7 16.0 -3.8 17 11.5 N 22 32 12 17 1011.7 1009.2 0.0
23/08:00am 21.8 17.0 -2.8 19 10.8 N 13 17 7 9 1011.6 1009.1 0.0
23/07:54am 21.5 16.6 -3.5 18 10.8 N 13 19 7 10 1011.5 1009.0 0.0
23/07:30am 16.5 12.9 0.4 33 7.2 NNW 9 11 5 6 1011.4 1008.9 0.0
23/07:00am 14.4 10.3 -0.1 37 6.3 NW 11 15 6 8 1011.2 1008.7 0.0
23/06:30am 15.1 12.9 1.1 38 6.3 W 2 9 1 5 1010.9 1008.4 0.0
23/06:00am 14.2 12.2 -0.4 36 6.3 CALM 0 0 0 0 1010.6 1008.1 0.0
23/05:30am 15.5 12.2 0.4 35 6.7 NNW 7 11 4 6 1010.7 1008.2 0.0
23/05:00am 15.4 12.3 1.2 38 6.4 WNW 7 9 4 5 1010.7 1008.2 0.0

Other Formats:

Comma delimited format used in spreadsheet applications
http://www.bom.gov.au/fwo/IDD60801/IDD60801.94461.axf

JavaScript Object Notation format (JSON) in row-major order
http://www.bom.gov.au/fwo/IDD60801/IDD60801.94461.json